createdAt,value
2023-04-10T00:01:40.939Z,1.70
2023-04-10T00:04:07.502Z,1.88
2023-04-10T00:06:34.039Z,0.98
2023-04-10T00:09:00.667Z,1.17
2023-04-10T00:11:27.611Z,1.40
2023-04-10T00:13:54.475Z,1.88
2023-04-10T00:16:22.498Z,1.20
2023-04-10T00:18:48.939Z,1.52
2023-04-10T00:21:15.564Z,1.35
2023-04-10T00:23:41.997Z,1.55
2023-04-10T00:26:08.816Z,1.10
2023-04-10T00:28:35.321Z,1.17
2023-04-10T00:31:01.893Z,1.17
2023-04-10T00:33:29.718Z,1.48
2023-04-10T00:35:56.232Z,1.10
2023-04-10T00:38:22.737Z,1.05
2023-04-10T00:40:49.198Z,1.55
2023-04-10T00:43:16.712Z,1.50
2023-04-10T00:45:43.221Z,1.10
2023-04-10T00:48:09.999Z,1.38
2023-04-10T00:50:37.789Z,1.25
2023-04-10T00:53:04.429Z,1.50
2023-04-10T00:55:31.014Z,1.30
2023-04-10T00:57:58.131Z,1.20
2023-04-10T01:00:24.658Z,1.50
2023-04-10T01:02:51.429Z,1.85
2023-04-10T01:05:18.117Z,1.50
2023-04-10T01:07:56.026Z,1.80
2023-04-10T01:10:29.446Z,1.67
2023-04-10T01:13:01.612Z,2.17
2023-04-10T01:15:30.834Z,1.25
2023-04-10T01:18:04.779Z,2.28
2023-04-10T01:23:16.093Z,1.83
2023-04-10T01:25:46.209Z,1.02
2023-04-10T01:28:30.284Z,1.60
2023-04-10T01:31:00.884Z,1.92
2023-04-10T01:33:34.229Z,1.10
2023-04-10T01:36:04.616Z,1.33
2023-04-10T01:38:31.599Z,1.33
2023-04-10T01:40:59.708Z,1.48
2023-04-10T01:43:27.926Z,1.60
2023-04-10T01:45:55.573Z,2.20
2023-04-10T01:48:23.406Z,1.83
2023-04-10T01:50:51.223Z,1.73
2023-04-10T01:53:18.425Z,1.20
2023-04-10T01:55:45.173Z,1.40
2023-04-10T01:58:11.770Z,1.38
2023-04-10T02:00:38.748Z,1.45
2023-04-10T02:03:05.314Z,1.90
2023-04-10T02:05:46.280Z,1.30
2023-04-10T02:08:17.987Z,1.63
2023-04-10T02:10:51.986Z,2.25
2023-04-10T02:15:50.313Z,1.63
2023-04-10T02:18:18.717Z,3.00
2023-04-10T02:20:47.065Z,1.40
2023-04-10T02:23:15.690Z,1.30
2023-04-10T02:25:42.297Z,1.30
2023-04-10T02:28:08.856Z,2.10
2023-04-10T02:30:35.615Z,1.65
2023-04-10T02:33:02.198Z,1.70
2023-04-10T02:35:28.783Z,2.08
2023-04-10T02:37:56.824Z,1.08
2023-04-10T02:40:23.405Z,1.70
2023-04-10T02:42:49.916Z,1.48
2023-04-10T02:45:16.476Z,1.90
2023-04-10T02:47:43.025Z,3.03
2023-04-10T02:50:10.249Z,2.67
2023-04-10T02:52:36.691Z,1.95
2023-04-10T02:55:04.996Z,1.55
2023-04-10T02:57:31.548Z,1.67
2023-04-10T02:59:57.983Z,1.90
2023-04-10T03:02:24.562Z,2.05
2023-04-10T03:04:51.248Z,1.67
2023-04-10T03:07:17.775Z,3.08
2023-04-10T03:09:44.385Z,1.85
2023-04-10T03:12:12.122Z,1.55
2023-04-10T03:14:38.574Z,1.80
2023-04-10T03:17:05.048Z,3.22
2023-04-10T03:19:31.474Z,2.42
2023-04-10T03:21:57.926Z,2.47
2023-04-10T03:24:24.396Z,2.03
2023-04-10T03:26:50.845Z,1.40
2023-04-10T03:29:18.812Z,2.08
2023-04-10T03:31:45.407Z,1.77
2023-04-10T03:34:11.899Z,1.58
2023-04-10T03:36:38.341Z,1.50
2023-04-10T03:39:04.784Z,1.63
2023-04-10T03:41:31.361Z,1.85
2023-04-10T03:43:57.799Z,1.38
2023-04-10T03:46:25.556Z,3.85
2023-04-10T03:48:52.044Z,1.98
2023-04-10T03:51:18.498Z,2.05
2023-04-10T03:53:44.981Z,2.45
2023-04-10T03:56:11.475Z,1.60
2023-04-10T03:58:37.929Z,2.58
2023-04-10T04:01:05.437Z,4.70
2023-04-10T04:03:33.353Z,1.58
2023-04-10T04:05:59.978Z,2.17
2023-04-10T04:08:26.473Z,1.70
2023-04-10T04:10:52.901Z,2.17
2023-04-10T04:13:19.440Z,1.98
2023-04-10T04:15:45.976Z,1.75
2023-04-10T04:18:12.488Z,2.03
2023-04-10T04:20:40.239Z,2.13
2023-04-10T04:23:06.665Z,1.67
2023-04-10T04:25:33.190Z,2.03
2023-04-10T04:27:59.695Z,1.88
2023-04-10T04:30:26.362Z,1.17
2023-04-10T04:32:52.992Z,2.50
2023-04-10T04:35:19.509Z,4.30
2023-04-10T04:37:47.335Z,3.35
2023-04-10T04:40:13.848Z,5.07
2023-04-10T04:42:40.294Z,3.00
2023-04-10T04:45:08.586Z,4.90
2023-04-10T04:47:35.022Z,2.47
2023-04-10T04:50:01.454Z,3.08
2023-04-10T04:52:27.972Z,3.28
2023-04-10T04:54:55.737Z,2.53
2023-04-10T04:57:22.172Z,2.75
2023-04-10T04:59:48.610Z,2.35
2023-04-10T05:02:15.093Z,2.63
2023-04-10T05:04:41.646Z,3.45
2023-04-10T05:07:08.127Z,2.35
2023-04-10T05:09:34.554Z,2.45
2023-04-10T05:12:02.312Z,2.95
2023-04-10T05:14:28.771Z,3.00
2023-04-10T05:16:55.323Z,2.42
2023-04-10T05:19:21.764Z,2.78
2023-04-10T05:21:48.305Z,2.60
2023-04-10T05:24:14.731Z,2.67
2023-04-10T05:26:41.163Z,2.17
2023-04-10T05:29:08.974Z,2.58
2023-04-10T05:31:35.532Z,2.80
2023-04-10T05:34:02.057Z,2.40
2023-04-10T05:36:28.619Z,3.50
2023-04-10T05:38:55.229Z,2.47
2023-04-10T05:41:21.770Z,1.98
2023-04-10T05:43:48.226Z,2.72
2023-04-10T05:46:16.095Z,2.80
2023-04-10T05:48:42.655Z,3.83
2023-04-10T05:51:09.087Z,2.88
2023-04-10T05:53:35.573Z,2.13
2023-04-10T05:56:02.093Z,2.20
2023-04-10T05:58:29.060Z,2.45
2023-04-10T06:00:55.555Z,2.10
2023-04-10T06:03:23.401Z,1.77
2023-04-10T06:05:49.969Z,2.47
2023-04-10T06:08:16.650Z,2.10
2023-04-10T06:10:43.144Z,2.28
2023-04-10T06:13:11.132Z,2.40
2023-04-10T06:15:38.113Z,1.98
2023-04-10T06:18:04.728Z,1.67
2023-04-10T06:20:32.667Z,2.70
2023-04-10T06:22:59.573Z,1.63
2023-04-10T06:25:26.228Z,3.13
2023-04-10T06:27:52.794Z,2.95
2023-04-10T06:30:19.305Z,2.90
2023-04-10T06:32:45.823Z,2.50
2023-04-10T06:35:12.351Z,2.78
2023-04-10T06:37:40.126Z,2.17
2023-04-10T06:40:08.822Z,2.25
2023-04-10T06:42:35.946Z,2.35
2023-04-10T06:45:03.931Z,2.55
2023-04-10T06:47:30.796Z,1.58
2023-04-10T06:49:57.327Z,2.08
2023-04-10T06:52:23.864Z,1.67
2023-04-10T06:54:51.638Z,1.67
2023-04-10T06:57:18.104Z,1.73
2023-04-10T06:59:44.631Z,2.20
2023-04-10T07:02:11.204Z,2.30
2023-04-10T07:04:37.813Z,2.17
2023-04-10T07:07:04.280Z,2.80
2023-04-10T07:09:30.837Z,2.05
2023-04-10T07:11:58.819Z,1.65
2023-04-10T07:14:25.301Z,2.05
2023-04-10T07:16:51.882Z,1.80
2023-04-10T07:19:18.534Z,2.17
2023-04-10T07:21:44.966Z,2.05
2023-04-10T07:24:11.525Z,2.03
2023-04-10T07:26:37.948Z,1.88
2023-04-10T07:29:05.793Z,3.30
2023-04-10T07:31:32.260Z,1.45
2023-04-10T07:33:58.814Z,2.10
2023-04-10T07:36:25.346Z,1.98
2023-04-10T07:38:51.889Z,1.15
2023-04-10T07:41:18.416Z,1.33
2023-04-10T07:43:44.987Z,1.90
2023-04-10T07:46:12.744Z,2.22
2023-04-10T07:48:39.169Z,1.63
2023-04-10T07:51:06.028Z,1.88
2023-04-10T07:53:32.488Z,2.25
2023-04-10T07:55:59.028Z,2.25
2023-04-10T07:58:25.485Z,4.15
2023-04-10T08:00:52.108Z,1.23
2023-04-10T08:03:20.154Z,1.95
2023-04-10T08:05:46.785Z,2.17
2023-04-10T08:08:14.195Z,2.15
2023-04-10T08:10:40.676Z,1.58
2023-04-10T08:13:07.217Z,1.20
2023-04-10T08:15:34.013Z,1.65
2023-04-10T08:18:00.494Z,1.20
2023-04-10T08:20:28.661Z,1.20
2023-04-10T08:22:56.265Z,2.45
2023-04-10T08:25:25.611Z,2.45
2023-04-10T08:27:52.144Z,2.03
2023-04-10T08:30:18.785Z,1.60
2023-04-10T08:32:45.295Z,2.80
2023-04-10T08:35:11.774Z,2.15
2023-04-10T08:37:39.548Z,1.98
2023-04-10T08:40:06.695Z,1.42
2023-04-10T08:42:34.654Z,1.20
2023-04-10T08:45:02.241Z,1.77
2023-04-10T08:47:35.810Z,2.45
2023-04-10T08:50:07.056Z,1.92
2023-04-10T08:52:35.824Z,1.55
2023-04-10T08:55:08.992Z,1.33
2023-04-10T08:57:39.092Z,1.65
2023-04-10T09:00:22.162Z,2.60
2023-04-10T09:02:49.842Z,1.20
2023-04-10T09:05:16.485Z,2.00
2023-04-10T09:07:42.949Z,2.75
2023-04-10T09:10:10.954Z,1.75
2023-04-10T09:12:45.770Z,1.83
2023-04-10T09:15:12.259Z,2.17
2023-04-10T09:17:38.833Z,2.40
2023-04-10T09:20:20.800Z,1.45
2023-04-10T09:22:47.241Z,1.52
2023-04-10T09:25:29.804Z,1.52
2023-04-10T09:28:00.195Z,2.55
2023-04-10T09:30:34.698Z,1.85
2023-04-10T09:33:03.417Z,1.52
2023-04-10T09:35:38.183Z,1.48
2023-04-10T09:38:14.853Z,1.65
2023-04-10T09:40:42.924Z,1.67
2023-04-10T09:43:18.425Z,1.77
2023-04-10T09:45:47.510Z,1.63
2023-04-10T09:48:14.057Z,3.40
2023-04-10T09:50:40.743Z,1.55
2023-04-10T09:53:09.182Z,1.67
2023-04-10T09:55:36.621Z,1.20
2023-04-10T09:58:05.752Z,1.38
2023-04-10T10:00:38.658Z,1.65
2023-04-10T10:03:08.046Z,1.65
2023-04-10T10:05:36.109Z,1.17
2023-04-10T10:08:02.663Z,2.17
2023-04-10T10:10:29.351Z,1.60
2023-04-10T10:12:59.450Z,1.15
2023-04-10T10:15:34.747Z,1.00
2023-04-10T10:18:07.516Z,1.88
2023-04-10T10:20:36.563Z,2.45
2023-04-10T10:23:03.619Z,2.13
2023-04-10T10:25:31.286Z,2.22
2023-04-10T10:27:59.800Z,2.13
2023-04-10T10:30:30.358Z,2.33
2023-04-10T10:32:58.902Z,1.73
2023-04-10T10:35:27.980Z,1.58
2023-04-10T10:37:58.315Z,2.17
2023-04-10T10:40:29.642Z,2.15
2023-04-10T10:43:00.606Z,2.35
2023-04-10T10:45:34.495Z,1.52
2023-04-10T10:50:50.785Z,2.05
2023-04-10T10:53:32.114Z,2.20
2023-04-10T10:55:58.592Z,1.15
2023-04-10T10:58:46.694Z,2.88
2023-04-10T11:01:15.050Z,1.50
2023-04-10T11:03:41.731Z,1.50
2023-04-10T11:06:09.258Z,2.50
2023-04-10T11:08:41.001Z,2.83
2023-04-10T11:11:08.724Z,2.40
2023-04-10T11:13:36.419Z,2.97
2023-04-10T11:16:04.608Z,2.78
2023-04-10T11:18:59.483Z,1.65
2023-04-10T11:21:35.050Z,1.95
2023-04-10T11:24:03.937Z,1.70
2023-04-10T11:26:39.635Z,1.42
2023-04-10T11:29:24.488Z,1.63
2023-04-10T11:31:56.166Z,1.52
2023-04-10T11:34:23.095Z,1.45
2023-04-10T11:36:50.909Z,1.75
2023-04-10T11:39:17.704Z,1.40
2023-04-10T11:41:45.437Z,2.08
2023-04-10T11:44:13.613Z,1.30
2023-04-10T11:46:42.037Z,2.10
2023-04-10T11:49:10.115Z,1.30
2023-04-10T11:51:37.371Z,1.67
2023-04-10T11:54:06.830Z,2.15
2023-04-10T11:56:33.341Z,1.77
2023-04-10T11:58:59.824Z,2.00
2023-04-10T12:01:26.291Z,2.00
2023-04-10T12:03:53.003Z,1.75
2023-04-10T12:06:20.268Z,0.90
2023-04-10T12:08:47.977Z,2.05
2023-04-10T12:11:18.171Z,1.05
2023-04-10T12:13:44.615Z,0.85
2023-04-10T12:16:11.270Z,1.77
2023-04-10T12:18:38.289Z,1.95
2023-04-10T12:21:06.796Z,1.75
2023-04-10T12:23:37.236Z,1.35
2023-04-10T12:26:08.575Z,1.10
2023-04-10T12:28:37.206Z,0.70
2023-04-10T12:31:04.215Z,1.42
2023-04-10T12:33:30.749Z,2.80
2023-04-10T12:35:57.346Z,1.10
2023-04-10T12:38:35.349Z,3.05
2023-04-10T12:41:02.097Z,2.05
2023-04-10T12:43:33.407Z,1.55
2023-04-10T12:46:01.630Z,1.00
2023-04-10T12:48:28.354Z,1.27
2023-04-10T12:50:54.979Z,0.80
2023-04-10T12:53:22.041Z,2.05
2023-04-10T12:55:59.614Z,1.15
2023-04-10T12:58:26.364Z,2.92
2023-04-10T13:00:52.825Z,1.98
2023-04-10T13:03:20.957Z,1.85
2023-04-10T13:05:47.583Z,1.85
2023-04-10T13:08:14.112Z,2.05
2023-04-10T13:10:40.726Z,2.25
2023-04-10T13:13:07.346Z,1.90
2023-04-10T13:15:33.969Z,1.85
2023-04-10T13:18:00.604Z,2.25
2023-04-10T13:20:29.725Z,2.10
2023-04-10T13:22:56.227Z,1.42
2023-04-10T13:25:22.737Z,2.08
2023-04-10T13:27:49.362Z,1.92
2023-04-10T13:30:15.814Z,2.65
2023-04-10T13:32:42.374Z,2.05
2023-04-10T13:35:09.208Z,1.20
2023-04-10T13:37:36.959Z,0.82
2023-04-10T13:40:03.633Z,2.75
2023-04-10T13:42:30.048Z,1.25
2023-04-10T13:44:56.532Z,2.03
2023-04-10T13:47:23.013Z,1.50
2023-04-10T13:49:49.534Z,1.67
2023-04-10T13:52:16.002Z,1.63
2023-04-10T13:54:43.892Z,1.08
2023-04-10T13:57:10.377Z,2.05
2023-04-10T13:59:36.967Z,3.75
2023-04-10T14:02:03.487Z,1.60
2023-04-10T14:04:30.033Z,1.58
2023-04-10T14:06:56.469Z,3.03
2023-04-10T14:09:22.942Z,2.33
2023-04-10T14:11:50.714Z,2.92
2023-04-10T14:14:17.153Z,2.92
2023-04-10T14:16:43.638Z,2.00
2023-04-10T14:19:10.621Z,1.20
2023-04-10T14:21:37.088Z,2.55
2023-04-10T14:24:03.687Z,1.25
2023-04-10T14:26:30.292Z,2.60
2023-04-10T14:28:58.030Z,1.60
2023-04-10T14:31:24.698Z,2.40
2023-04-10T14:33:51.252Z,1.75
2023-04-10T14:36:17.807Z,1.83
2023-04-10T14:38:44.302Z,1.92
2023-04-10T14:41:10.792Z,1.35
2023-04-10T14:43:37.514Z,3.20
2023-04-10T14:46:05.671Z,2.13
2023-04-10T14:48:32.222Z,3.53
2023-04-10T14:50:58.772Z,2.45
2023-04-10T14:53:25.183Z,3.97
2023-04-10T14:55:51.630Z,2.50
2023-04-10T14:58:18.204Z,3.28
2023-04-10T15:00:44.677Z,3.65
2023-04-10T15:03:12.676Z,4.32
2023-04-10T15:05:39.177Z,4.82
2023-04-10T15:08:05.693Z,5.45
2023-04-10T15:10:32.269Z,4.72
2023-04-10T15:12:58.750Z,5.57
2023-04-10T15:15:25.258Z,5.32
2023-04-10T15:17:51.754Z,7.00
2023-04-10T15:20:19.565Z,6.55
2023-04-10T15:22:46.027Z,6.82
2023-04-10T15:25:12.464Z,5.97
2023-04-10T15:27:38.914Z,4.85
2023-04-10T15:30:06.491Z,7.45
2023-04-10T15:32:33.014Z,7.00
2023-04-10T15:34:59.572Z,5.20
2023-04-10T15:37:27.309Z,6.95
2023-04-10T15:39:53.794Z,7.18
2023-04-10T15:42:20.338Z,7.07
2023-04-10T15:44:48.701Z,9.45
2023-04-10T15:47:15.907Z,6.30
2023-04-10T15:49:42.355Z,5.80
2023-04-10T15:52:08.846Z,5.78
2023-04-10T15:54:38.355Z,5.22
2023-04-10T15:57:05.006Z,6.28
2023-04-10T15:59:32.544Z,6.57
2023-04-10T16:01:59.059Z,5.75
2023-04-10T16:04:25.653Z,7.85
2023-04-10T16:06:52.329Z,7.25
2023-04-10T16:11:49.878Z,7.90
2023-04-10T16:14:16.708Z,6.88
2023-04-10T16:16:43.160Z,6.85
2023-04-10T16:19:09.642Z,8.98
2023-04-10T16:21:36.174Z,7.53
2023-04-10T16:24:02.751Z,7.15
2023-04-10T16:26:29.177Z,9.07
2023-04-10T16:28:57.181Z,7.80
2023-04-10T16:31:23.897Z,8.48
2023-04-10T16:33:50.383Z,8.10
2023-04-10T16:36:16.808Z,9.82
2023-04-10T16:38:43.336Z,6.15
2023-04-10T16:41:09.805Z,8.52
2023-04-10T16:43:36.279Z,9.75
2023-04-10T16:46:04.380Z,15.05
2023-04-10T16:48:30.864Z,8.80
2023-04-10T16:50:57.308Z,7.43
2023-04-10T16:53:23.778Z,7.90
2023-04-10T16:55:56.785Z,9.30
2023-04-10T16:58:23.200Z,12.10
2023-04-10T17:00:49.699Z,7.13
2023-04-10T17:03:17.615Z,8.15
2023-04-10T17:05:44.213Z,8.60
2023-04-10T17:08:10.706Z,12.18
2023-04-10T17:10:37.288Z,8.02
2023-04-10T17:13:03.745Z,6.55
2023-04-10T17:15:30.300Z,5.95
2023-04-10T17:17:56.832Z,7.55
2023-04-10T17:20:24.573Z,9.48
2023-04-10T17:22:51.025Z,9.55
2023-04-10T17:25:17.628Z,9.25
2023-04-10T17:27:44.124Z,8.43
2023-04-10T17:30:11.956Z,8.70
2023-04-10T17:32:38.464Z,11.05
2023-04-10T17:35:05.630Z,8.73
2023-04-10T17:37:33.321Z,9.07
2023-04-10T17:39:59.769Z,7.20
2023-04-10T17:42:26.354Z,7.70
2023-04-10T17:44:52.778Z,5.75
2023-04-10T17:47:19.205Z,6.93
2023-04-10T17:49:45.728Z,6.28
2023-04-10T17:52:12.179Z,7.53
2023-04-10T17:54:39.955Z,8.68
2023-04-10T17:57:06.415Z,9.82
2023-04-10T17:59:32.868Z,9.30
2023-04-10T18:01:59.417Z,9.73
2023-04-10T18:04:25.917Z,7.97
2023-04-10T18:06:52.367Z,7.28
2023-04-10T18:09:18.839Z,7.13
2023-04-10T18:11:47.368Z,8.50
2023-04-10T18:14:13.927Z,7.53
2023-04-10T18:16:40.422Z,6.00
2023-04-10T18:19:06.884Z,7.25
2023-04-10T18:21:33.486Z,6.50
2023-04-10T18:24:00.005Z,7.05
2023-04-10T18:26:28.502Z,6.97
2023-04-10T18:28:56.619Z,6.03
2023-04-10T18:31:23.311Z,6.15
2023-04-10T18:34:00.233Z,8.18
2023-04-10T18:36:33.356Z,8.07
2023-04-10T18:38:59.847Z,6.60
2023-04-10T18:41:26.372Z,7.78
2023-04-10T18:44:01.687Z,5.85
2023-04-10T18:46:33.088Z,7.22
2023-04-10T18:48:59.826Z,5.65
2023-04-10T18:51:26.297Z,5.88
2023-04-10T18:53:53.078Z,7.47
2023-04-10T18:56:19.838Z,7.47
2023-04-10T18:58:48.295Z,6.93
2023-04-10T19:01:16.381Z,5.75
2023-04-10T19:03:44.467Z,6.28
2023-04-10T19:06:11.238Z,6.20
2023-04-10T19:08:37.881Z,8.48
2023-04-10T19:11:04.824Z,5.55
2023-04-10T19:13:31.312Z,5.60
2023-04-10T19:15:57.890Z,7.65
2023-04-10T19:18:24.526Z,6.22
2023-04-10T19:20:53.196Z,5.70
2023-04-10T19:23:19.972Z,6.22
2023-04-10T19:25:46.517Z,5.75
2023-04-10T19:28:12.978Z,5.63
2023-04-10T19:30:39.419Z,7.70
2023-04-10T19:33:06.114Z,5.15
2023-04-10T19:35:32.627Z,5.82
2023-04-10T19:38:00.361Z,6.43
2023-04-10T19:40:26.900Z,6.95
2023-04-10T19:42:53.437Z,6.10
2023-04-10T19:45:19.880Z,7.03
2023-04-10T19:47:50.260Z,6.93
2023-04-10T19:50:17.812Z,7.47
2023-04-10T19:52:44.269Z,6.38
2023-04-10T19:55:12.055Z,7.32
2023-04-10T19:57:38.631Z,3.72
2023-04-10T20:00:05.983Z,5.88
2023-04-10T20:02:32.845Z,5.15
2023-04-10T20:04:59.582Z,5.60
2023-04-10T20:07:26.124Z,6.78
2023-04-10T20:09:52.586Z,5.82
2023-04-10T20:12:20.340Z,6.90
2023-04-10T20:14:46.782Z,6.45
2023-04-10T20:17:13.300Z,6.30
2023-04-10T20:19:39.719Z,4.22
2023-04-10T20:22:07.326Z,6.53
2023-04-10T20:24:33.748Z,5.85
2023-04-10T20:27:00.178Z,5.68
2023-04-10T20:29:28.043Z,7.80
2023-04-10T20:31:54.651Z,5.55
2023-04-10T20:34:21.310Z,5.03
2023-04-10T20:36:47.804Z,6.22
2023-04-10T20:39:14.261Z,6.38
2023-04-10T20:41:40.707Z,4.60
2023-04-10T20:44:07.127Z,7.38
2023-04-10T20:46:34.907Z,6.60
2023-04-10T20:49:01.376Z,5.53
2023-04-10T20:51:27.869Z,5.65
2023-04-10T20:53:54.804Z,5.35
2023-04-10T20:56:24.944Z,3.85
2023-04-10T20:58:56.543Z,4.95
2023-04-10T21:01:23.189Z,7.03
2023-04-10T21:03:51.138Z,7.85
2023-04-10T21:06:17.770Z,5.80
2023-04-10T21:08:44.211Z,5.72
2023-04-10T21:11:10.670Z,5.80
2023-04-10T21:13:38.533Z,3.40
2023-04-10T21:16:05.743Z,3.85
2023-04-10T21:18:32.270Z,5.13
2023-04-10T21:20:59.969Z,5.95
2023-04-10T21:23:26.448Z,5.38
2023-04-10T21:25:53.052Z,5.97
2023-04-10T21:28:19.561Z,6.03
2023-04-10T21:30:46.211Z,5.90
2023-04-10T21:33:12.895Z,6.28
2023-04-10T21:35:42.166Z,7.75
2023-04-10T21:38:10.542Z,6.28
2023-04-10T21:40:36.993Z,6.95
2023-04-10T21:43:03.658Z,5.13
2023-04-10T21:45:30.199Z,5.75
2023-04-10T21:47:56.717Z,5.60
2023-04-10T21:50:24.176Z,5.68
2023-04-10T21:52:50.611Z,6.90
2023-04-10T21:55:18.542Z,4.88
2023-04-10T21:57:45.131Z,3.72
2023-04-10T22:00:12.810Z,5.47
2023-04-10T22:02:39.552Z,4.35
2023-04-10T22:05:06.737Z,4.57
2023-04-10T22:07:33.209Z,5.22
2023-04-10T22:09:59.662Z,5.15
2023-04-10T22:12:27.488Z,4.93
2023-04-10T22:14:54.014Z,7.75
2023-04-10T22:17:20.429Z,5.68
2023-04-10T22:19:46.933Z,5.07
2023-04-10T22:22:13.464Z,6.05
2023-04-10T22:24:39.896Z,6.65
2023-04-10T22:27:06.573Z,7.38
2023-04-10T22:29:35.586Z,6.55
2023-04-10T22:32:02.193Z,5.85
2023-04-10T22:34:29.301Z,4.57
2023-04-10T22:36:55.855Z,4.43
2023-04-10T22:39:22.307Z,4.40
2023-04-10T22:41:48.729Z,5.93
2023-04-10T22:44:15.291Z,5.60
2023-04-10T22:46:43.171Z,4.38
2023-04-10T22:49:09.711Z,6.78
2023-04-10T22:51:36.170Z,6.55
2023-04-10T22:54:02.629Z,6.43
2023-04-10T22:56:29.091Z,6.13
2023-04-10T22:58:55.709Z,8.68
2023-04-10T23:01:22.575Z,4.93
2023-04-10T23:03:50.415Z,5.15
2023-04-10T23:06:16.850Z,6.00
2023-04-10T23:08:43.254Z,6.85
2023-04-10T23:11:09.715Z,7.05
2023-04-10T23:13:36.167Z,5.50
2023-04-10T23:16:02.705Z,5.45
2023-04-10T23:18:29.219Z,8.80
2023-04-10T23:20:56.980Z,5.18
2023-04-10T23:23:23.394Z,5.07
2023-04-10T23:25:56.896Z,5.63
2023-04-10T23:28:23.389Z,4.80
2023-04-10T23:30:49.927Z,4.90
2023-04-10T23:33:16.639Z,6.28
2023-04-10T23:35:43.287Z,6.60
2023-04-10T23:38:11.146Z,5.10
2023-04-10T23:40:37.610Z,5.10
2023-04-10T23:43:05.252Z,5.75
2023-04-10T23:45:31.698Z,6.57
2023-04-10T23:47:58.125Z,6.30
2023-04-10T23:50:24.628Z,4.65
2023-04-10T23:52:51.727Z,4.57
2023-04-10T23:55:19.530Z,7.22
2023-04-10T23:57:46.009Z,7.22
